Time;durP1;ratioP1;P1;durP2;ratioP2;P2;SDS_P1;SDS_P2;PMS_P1;PMS_P2;Temp;Humidity;BMP_temperature;BMP_pressure;BME280_temperature;BME280_humidity;BME280_pressure;Samples;Min_cycle;Max_cycle;Signal;HPM_P1;HPM_P2
2023/03/09 00:01:33;;;;;;;;;1.00;1.00;;;;;;;;4972921;28;10419;-81
2023/03/09 00:04:01;;;;;;;;;1.25;1.25;;;;;;;;4972594;28;10409;-81
2023/03/09 00:06:31;;;;;;;;;1.50;1.50;;;;;;;;4972185;28;10407;-81
2023/03/09 00:08:59;;;;;;;;;1.00;1.00;;;;;;;;4977129;28;10261;-80
2023/03/09 00:11:26;;;;;;;;;3.00;1.50;;;;;;;;4974546;28;12956;-79
2023/03/09 00:13:54;;;;;;;;;1.00;1.00;;;;;;;;4974604;28;10410;-81
2023/03/09 00:16:23;;;;;;;;;2.00;1.75;;;;;;;;4954286;28;10275;-81
2023/03/09 00:18:53;;;;;;;;;1.00;1.00;;;;;;;;4972873;28;10366;-81
2023/03/09 00:21:38;;;;;;;;;4.00;1.00;;;;;;;;4973244;28;10454;-81
2023/03/09 00:24:11;;;;;;;;;2.50;0.00;;;;;;;;4970102;28;10290;-81
2023/03/09 00:26:40;;;;;;;;;2.75;0.00;;;;;;;;4968172;28;10187;-80
2023/03/09 00:29:09;;;;;;;;;0.00;0.00;;;;;;;;4974280;28;10246;-80
2023/03/09 00:31:37;;;;;;;;;1.00;1.00;;;;;;;;4971558;28;10271;-80
2023/03/09 00:34:05;;;;;;;;;1.00;1.00;;;;;;;;4972322;28;10281;-81
2023/03/09 00:36:32;;;;;;;;;1.75;1.00;;;;;;;;4970653;28;11213;-80
2023/03/09 00:39:01;;;;;;;;;2.00;1.00;;;;;;;;4970257;28;10393;-79
2023/03/09 00:41:31;;;;;;;;;1.25;1.25;;;;;;;;4971394;28;10329;-80
2023/03/09 00:43:59;;;;;;;;;1.00;1.00;;;;;;;;4968502;28;10344;-81
2023/03/09 00:46:27;;;;;;;;;2.75;1.00;;;;;;;;4975624;28;10270;-81
2023/03/09 00:48:55;;;;;;;;;3.75;1.00;;;;;;;;4970345;28;10331;-81
2023/03/09 00:51:24;;;;;;;;;0.75;0.75;;;;;;;;4967553;28;10426;-79
2023/03/09 00:53:52;;;;;;;;;0.00;0.00;;;;;;;;4971930;28;10323;-79
2023/03/09 00:56:21;;;;;;;;;1.00;1.00;;;;;;;;4972073;28;10276;-79
2023/03/09 00:58:50;;;;;;;;;1.00;1.00;;;;;;;;4972599;28;10335;-79
2023/03/09 01:01:18;;;;;;;;;0.50;0.50;;;;;;;;4973554;28;10315;-79
2023/03/09 01:03:46;;;;;;;;;1.50;0.00;;;;;;;;4973058;28;10337;-79
2023/03/09 01:06:14;;;;;;;;;2.50;0.00;;;;;;;;4967827;28;10381;-79
2023/03/09 01:08:42;;;;;;;;;1.00;1.00;;;;;;;;4973655;28;10252;-79
2023/03/09 01:11:12;;;;;;;;;1.50;1.50;;;;;;;;4976573;28;10309;-80
2023/03/09 01:13:39;;;;;;;;;1.25;1.25;;;;;;;;4976793;28;10255;-80
2023/03/09 01:16:09;;;;;;;;;4.50;1.00;;;;;;;;4973417;28;10431;-81
2023/03/09 01:18:37;;;;;;;;;5.00;2.00;;;;;;;;4977801;28;10353;-80
2023/03/09 01:21:06;;;;;;;;;2.75;2.00;;;;;;;;4976536;28;10427;-80
2023/03/09 01:23:33;;;;;;;;;2.00;0.75;;;;;;;;4969895;28;10358;-80
2023/03/09 01:26:01;;;;;;;;;1.25;1.25;;;;;;;;4977794;28;10265;-80
2023/03/09 01:28:29;;;;;;;;;2.00;2.00;;;;;;;;4959893;28;10330;-79
2023/03/09 01:30:56;;;;;;;;;1.00;1.00;;;;;;;;4977552;28;10244;-80
2023/03/09 01:33:25;;;;;;;;;1.00;1.00;;;;;;;;4976554;28;10211;-79
2023/03/09 01:35:53;;;;;;;;;3.00;2.00;;;;;;;;4979620;28;10477;-80
2023/03/09 01:38:21;;;;;;;;;3.00;1.75;;;;;;;;4990328;28;10311;-77
2023/03/09 01:40:49;;;;;;;;;2.00;0.50;;;;;;;;4975076;28;10256;-79
2023/03/09 01:43:39;;;;;;;;;1.00;1.00;;;;;;;;4975013;28;10248;-80
2023/03/09 01:46:29;;;;;;;;;1.00;1.00;;;;;;;;4974977;28;10414;-79
2023/03/09 01:49:03;;;;;;;;;2.25;2.25;;;;;;;;4972163;28;10351;-81
2023/03/09 01:51:33;;;;;;;;;2.00;1.00;;;;;;;;4976712;28;10343;-81
2023/03/09 01:54:04;;;;;;;;;2.50;1.50;;;;;;;;4969581;28;10263;-81
2023/03/09 01:56:32;;;;;;;;;2.00;1.00;;;;;;;;4976778;28;10405;-81
2023/03/09 01:59:02;;;;;;;;;0.00;0.00;;;;;;;;4970426;28;10246;-79
2023/03/09 02:01:30;;;;;;;;;1.00;1.00;;;;;;;;4972205;28;10246;-81
2023/03/09 02:04:04;;;;;;;;;1.00;1.00;;;;;;;;4976020;28;10297;-80
2023/03/09 02:06:31;;;;;;;;;1.00;1.00;;;;;;;;4976530;28;10307;-81
2023/03/09 02:09:05;;;;;;;;;2.25;0.75;;;;;;;;4980987;28;10238;-81
2023/03/09 02:11:32;;;;;;;;;2.00;2.00;;;;;;;;4969263;28;10300;-81
2023/03/09 02:14:01;;;;;;;;;0.00;0.00;;;;;;;;4975721;28;10343;-81
2023/03/09 02:16:29;;;;;;;;;1.00;1.00;;;;;;;;4979566;28;11044;-80
2023/03/09 02:18:58;;;;;;;;;1.00;1.00;;;;;;;;4974045;28;10433;-81
2023/03/09 02:21:33;;;;;;;;;1.00;1.00;;;;;;;;4971384;28;10446;-80
2023/03/09 02:24:08;;;;;;;;;2.00;2.00;;;;;;;;4975829;28;10292;-80
2023/03/09 02:26:40;;;;;;;;;1.75;1.75;;;;;;;;4968814;28;10482;-81
2023/03/09 02:29:09;;;;;;;;;1.00;1.00;;;;;;;;4974038;28;10272;-80
2023/03/09 02:31:37;;;;;;;;;1.00;1.00;;;;;;;;4975266;28;10361;-80
2023/03/09 02:34:05;;;;;;;;;3.00;1.00;;;;;;;;4970464;28;10240;-79
2023/03/09 02:36:32;;;;;;;;;1.00;1.00;;;;;;;;4973389;28;11241;-80
2023/03/09 02:39:05;;;;;;;;;3.75;1.00;;;;;;;;4976634;28;10333;-81
2023/03/09 02:41:33;;;;;;;;;0.00;0.00;;;;;;;;4978000;28;10278;-80
2023/03/09 02:44:01;;;;;;;;;1.50;0.00;;;;;;;;4972644;28;10249;-80
2023/03/09 02:46:30;;;;;;;;;0.00;0.00;;;;;;;;4977731;28;10311;-80
2023/03/09 02:48:58;;;;;;;;;2.00;0.50;;;;;;;;4977454;28;10183;-80
2023/03/09 02:51:25;;;;;;;;;0.00;0.00;;;;;;;;4976576;28;10208;-80
2023/03/09 02:53:54;;;;;;;;;1.50;0.00;;;;;;;;4972564;28;10344;-80
2023/03/09 02:56:22;;;;;;;;;0.00;0.00;;;;;;;;4972093;28;10180;-80
2023/03/09 02:58:49;;;;;;;;;1.00;1.00;;;;;;;;4976599;28;10243;-80
2023/03/09 03:01:16;;;;;;;;;1.00;1.00;;;;;;;;4975618;28;11105;-79
2023/03/09 03:03:47;;;;;;;;;1.00;1.00;;;;;;;;4976029;28;11094;-79
2023/03/09 03:06:15;;;;;;;;;1.00;1.00;;;;;;;;4972650;28;10365;-79
2023/03/09 03:08:42;;;;;;;;;1.00;1.00;;;;;;;;4976799;28;10264;-83
2023/03/09 03:11:10;;;;;;;;;1.00;1.00;;;;;;;;4973185;28;11084;-80
2023/03/09 03:13:37;;;;;;;;;1.00;1.00;;;;;;;;4977213;28;10375;-80
2023/03/09 03:16:06;;;;;;;;;0.75;0.00;;;;;;;;4978822;28;10440;-81
2023/03/09 03:18:33;;;;;;;;;4.50;2.25;;;;;;;;4960951;28;11184;-82
2023/03/09 03:21:02;;;;;;;;;0.50;0.50;;;;;;;;4971318;28;10328;-80
2023/03/09 03:23:30;;;;;;;;;1.00;1.00;;;;;;;;4972537;28;10249;-81
2023/03/09 03:25:57;;;;;;;;;3.75;2.00;;;;;;;;4976446;28;10266;-82
2023/03/09 03:28:25;;;;;;;;;0.75;0.75;;;;;;;;4975437;28;10482;-82
2023/03/09 03:30:53;;;;;;;;;1.00;1.00;;;;;;;;4977840;28;10397;-81
2023/03/09 03:33:20;;;;;;;;;3.00;1.25;;;;;;;;4975696;28;10405;-80
2023/03/09 03:35:48;;;;;;;;;4.00;2.00;;;;;;;;4969377;28;10269;-81
2023/03/09 03:38:17;;;;;;;;;4.50;1.50;;;;;;;;4971391;28;10443;-82
2023/03/09 03:40:45;;;;;;;;;2.75;1.00;;;;;;;;4971012;28;10455;-82
2023/03/09 03:43:12;;;;;;;;;0.00;0.00;;;;;;;;4969911;28;10281;-82
2023/03/09 03:45:40;;;;;;;;;2.00;0.50;;;;;;;;4970298;28;10291;-81
2023/03/09 03:48:08;;;;;;;;;3.25;2.00;;;;;;;;4976313;28;10425;-82
2023/03/09 03:50:36;;;;;;;;;3.25;0.25;;;;;;;;4971849;28;10495;-81
2023/03/09 03:53:04;;;;;;;;;4.75;2.00;;;;;;;;4973796;28;10438;-81
2023/03/09 03:55:33;;;;;;;;;3.00;1.25;;;;;;;;4972937;28;10468;-81
2023/03/09 03:58:01;;;;;;;;;1.50;1.50;;;;;;;;4974366;28;10550;-82
2023/03/09 04:00:30;;;;;;;;;1.50;1.50;;;;;;;;4968072;28;10559;-80
2023/03/09 04:02:58;;;;;;;;;1.25;1.25;;;;;;;;4974250;28;10576;-81
2023/03/09 04:05:26;;;;;;;;;3.75;3.75;;;;;;;;4973634;28;10612;-79
2023/03/09 04:07:54;;;;;;;;;3.75;3.25;;;;;;;;4973557;28;10834;-80
2023/03/09 04:10:23;;;;;;;;;4.75;4.75;;;;;;;;4972789;28;10637;-82
2023/03/09 04:12:52;;;;;;;;;4.75;4.75;;;;;;;;4970239;28;10490;-80
2023/03/09 04:15:20;;;;;;;;;5.75;2.75;;;;;;;;4969660;28;10562;-81
2023/03/09 04:17:48;;;;;;;;;3.25;3.25;;;;;;;;4976635;28;10465;-81
2023/03/09 04:20:17;;;;;;;;;10.75;3.50;;;;;;;;4972133;28;10450;-85
2023/03/09 04:22:45;;;;;;;;;4.50;4.00;;;;;;;;4972490;28;10539;-81
2023/03/09 04:25:14;;;;;;;;;3.75;3.50;;;;;;;;4974924;28;10398;-81
2023/03/09 04:27:42;;;;;;;;;5.50;4.25;;;;;;;;4975257;28;10417;-81
2023/03/09 04:30:20;;;;;;;;;6.50;5.00;;;;;;;;4973336;28;10343;-81
2023/03/09 04:32:47;;;;;;;;;9.25;5.00;;;;;;;;4972030;28;10475;-81
2023/03/09 04:35:16;;;;;;;;;2.50;2.50;;;;;;;;4976755;28;10429;-81
2023/03/09 04:37:44;;;;;;;;;3.75;1.75;;;;;;;;4972340;28;10361;-81
2023/03/09 04:40:14;;;;;;;;;3.00;1.50;;;;;;;;4973540;28;10250;-80
2023/03/09 04:42:41;;;;;;;;;2.00;2.00;;;;;;;;4971185;28;10323;-81
2023/03/09 04:45:13;;;;;;;;;4.00;2.25;;;;;;;;4977515;28;10442;-81
2023/03/09 04:47:41;;;;;;;;;2.50;2.50;;;;;;;;4972621;28;10439;-81
2023/03/09 04:50:10;;;;;;;;;3.00;3.00;;;;;;;;4970113;28;10428;-81
2023/03/09 04:52:38;;;;;;;;;5.00;2.75;;;;;;;;4975716;28;10450;-81
2023/03/09 04:55:07;;;;;;;;;3.75;3.75;;;;;;;;4974766;28;10400;-80
2023/03/09 04:57:34;;;;;;;;;4.00;4.00;;;;;;;;4969712;28;10508;-80
2023/03/09 05:00:04;;;;;;;;;4.00;2.00;;;;;;;;4974238;28;10544;-80
2023/03/09 05:02:33;;;;;;;;;1.00;1.00;;;;;;;;4978199;28;11178;-80
2023/03/09 05:05:01;;;;;;;;;3.50;3.50;;;;;;;;4978509;28;11178;-80
2023/03/09 05:07:29;;;;;;;;;2.75;2.75;;;;;;;;4974684;28;10407;-81
2023/03/09 05:09:56;;;;;;;;;4.50;3.00;;;;;;;;4972935;28;10413;-81
2023/03/09 05:12:30;;;;;;;;;6.75;4.00;;;;;;;;4974488;28;10538;-81
2023/03/09 05:14:58;;;;;;;;;5.00;4.75;;;;;;;;4956314;28;10462;-85
2023/03/09 05:17:26;;;;;;;;;7.25;4.25;;;;;;;;4974677;28;10575;-81
2023/03/09 05:19:55;;;;;;;;;3.00;3.00;;;;;;;;4975713;28;10513;-81
2023/03/09 05:22:23;;;;;;;;;2.75;2.75;;;;;;;;4976204;28;10428;-81
2023/03/09 05:24:50;;;;;;;;;2.75;2.00;;;;;;;;4974501;28;10424;-80
2023/03/09 05:27:18;;;;;;;;;4.25;3.00;;;;;;;;4973005;28;10316;-85
2023/03/09 05:29:45;;;;;;;;;4.75;2.50;;;;;;;;4971863;28;10493;-80
2023/03/09 05:32:13;;;;;;;;;6.00;3.00;;;;;;;;4978372;28;10428;-81
2023/03/09 05:34:41;;;;;;;;;4.50;4.00;;;;;;;;4974188;28;10381;-81
2023/03/09 05:37:11;;;;;;;;;5.50;5.50;;;;;;;;4973475;28;10425;-80
2023/03/09 05:39:38;;;;;;;;;5.00;5.00;;;;;;;;4975904;28;10444;-79
2023/03/09 05:42:06;;;;;;;;;6.25;4.75;;;;;;;;4979779;28;10493;-80
2023/03/09 05:44:34;;;;;;;;;6.50;4.75;;;;;;;;4976494;28;10499;-83
2023/03/09 05:47:02;;;;;;;;;10.00;4.50;;;;;;;;4973587;28;11256;-81
2023/03/09 05:49:30;;;;;;;;;3.75;3.75;;;;;;;;4972202;28;11142;-80
2023/03/09 05:51:58;;;;;;;;;3.00;3.00;;;;;;;;4962680;28;10443;-79
2023/03/09 05:54:27;;;;;;;;;4.75;4.75;;;;;;;;4975063;28;10359;-82
2023/03/09 05:56:55;;;;;;;;;5.50;4.25;;;;;;;;4967703;28;10388;-81
2023/03/09 05:59:23;;;;;;;;;7.00;3.75;;;;;;;;4972358;28;10460;-82
2023/03/09 06:01:50;;;;;;;;;5.00;3.25;;;;;;;;4972948;28;10418;-82
2023/03/09 06:04:18;;;;;;;;;4.50;4.25;;;;;;;;4974054;28;10411;-81
2023/03/09 06:06:46;;;;;;;;;4.00;3.25;;;;;;;;4975787;28;10264;-81
2023/03/09 06:09:13;;;;;;;;;5.00;3.00;;;;;;;;4969931;28;10345;-82
2023/03/09 06:11:42;;;;;;;;;5.25;3.25;;;;;;;;4976814;28;10333;-82
2023/03/09 06:14:10;;;;;;;;;6.00;3.75;;;;;;;;4971964;28;10354;-81
2023/03/09 06:16:38;;;;;;;;;2.50;2.50;;;;;;;;4978910;28;10452;-81
2023/03/09 06:19:06;;;;;;;;;8.25;5.25;;;;;;;;4978037;28;10208;-81
2023/03/09 06:21:33;;;;;;;;;4.75;3.25;;;;;;;;4974248;28;10287;-80
2023/03/09 06:24:01;;;;;;;;;4.25;3.25;;;;;;;;4973717;28;10288;-81
2023/03/09 06:26:29;;;;;;;;;4.25;2.50;;;;;;;;4974062;28;10375;-81
2023/03/09 06:28:58;;;;;;;;;6.75;3.50;;;;;;;;4977758;28;10407;-81
2023/03/09 06:31:26;;;;;;;;;6.75;3.25;;;;;;;;4973127;28;10279;-82
2023/03/09 06:33:53;;;;;;;;;3.50;3.50;;;;;;;;4972650;28;10714;-81
2023/03/09 06:36:21;;;;;;;;;4.50;3.25;;;;;;;;4973767;28;10435;-81
2023/03/09 06:38:48;;;;;;;;;5.00;3.00;;;;;;;;4977497;28;10266;-83
2023/03/09 06:41:16;;;;;;;;;2.25;2.25;;;;;;;;4973366;28;10295;-81
2023/03/09 06:43:45;;;;;;;;;5.50;3.00;;;;;;;;4977685;28;10676;-83
2023/03/09 06:46:13;;;;;;;;;1.00;1.00;;;;;;;;4974403;28;10302;-83
2023/03/09 06:48:41;;;;;;;;;3.50;1.00;;;;;;;;4976768;28;10106;-81
2023/03/09 06:51:09;;;;;;;;;2.75;2.00;;;;;;;;4977356;28;10059;-85
2023/03/09 06:53:37;;;;;;;;;5.50;2.75;;;;;;;;4977549;28;10090;-83
2023/03/09 06:56:05;;;;;;;;;3.00;1.00;;;;;;;;4977644;28;10129;-83
2023/03/09 06:58:33;;;;;;;;;1.75;1.75;;;;;;;;4973086;28;10053;-84
2023/03/09 07:01:07;;;;;;;;;5.25;2.25;;;;;;;;4973009;28;10119;-88
2023/03/09 07:03:37;;;;;;;;;3.00;1.25;;;;;;;;4976560;28;10205;-82
2023/03/09 07:06:10;;;;;;;;;2.50;1.00;;;;;;;;4975284;28;10070;-83
2023/03/09 07:08:37;;;;;;;;;3.00;2.00;;;;;;;;4976591;28;10073;-83
2023/03/09 07:11:05;;;;;;;;;3.00;1.00;;;;;;;;4977482;28;10075;-83
2023/03/09 07:13:33;;;;;;;;;1.75;1.00;;;;;;;;4973269;28;10003;-83
2023/03/09 07:16:04;;;;;;;;;0.00;0.00;;;;;;;;4978524;28;9877;-84
2023/03/09 07:18:32;;;;;;;;;1.25;1.25;;;;;;;;4977412;28;9867;-85
2023/03/09 07:21:02;;;;;;;;;0.00;0.00;;;;;;;;4973637;28;9933;-84
2023/03/09 07:23:31;;;;;;;;;1.50;0.50;;;;;;;;4975697;28;9803;-75
2023/03/09 07:26:03;;;;;;;;;1.75;1.75;;;;;;;;4973084;28;9890;-76
2023/03/09 07:28:33;;;;;;;;;2.75;1.00;;;;;;;;4971979;28;10421;-81
2023/03/09 07:31:08;;;;;;;;;2.00;2.00;;;;;;;;4978090;28;9730;-79
2023/03/09 07:33:36;;;;;;;;;3.50;1.00;;;;;;;;4969986;28;9730;-78
2023/03/09 07:36:07;;;;;;;;;1.75;0.75;;;;;;;;4979093;28;9763;-83
2023/03/09 07:38:35;;;;;;;;;6.00;2.75;;;;;;;;4969663;28;9698;-82
2023/03/09 07:41:03;;;;;;;;;2.75;1.00;;;;;;;;4972598;28;9753;-80
2023/03/09 07:43:30;;;;;;;;;2.50;1.00;;;;;;;;4976113;28;9736;-81
2023/03/09 07:45:58;;;;;;;;;3.00;1.75;;;;;;;;4975164;28;9679;-82
2023/03/09 07:48:26;;;;;;;;;2.50;1.00;;;;;;;;4969815;28;9725;-73
2023/03/09 07:50:59;;;;;;;;;1.00;1.00;;;;;;;;4975267;28;9654;-75
2023/03/09 07:53:30;;;;;;;;;2.25;2.00;;;;;;;;4977097;28;9785;-73
2023/03/09 07:55:58;;;;;;;;;4.75;3.25;;;;;;;;4969550;28;9773;-73
2023/03/09 07:58:26;;;;;;;;;5.25;2.00;;;;;;;;4973328;28;9803;-80
2023/03/09 08:00:53;;;;;;;;;4.00;1.00;;;;;;;;4974863;28;9941;-74
2023/03/09 08:03:21;;;;;;;;;1.75;0.50;;;;;;;;4963812;28;9900;-73
2023/03/09 08:05:49;;;;;;;;;1.25;1.00;;;;;;;;4973843;28;9716;-75
2023/03/09 08:08:16;;;;;;;;;2.25;1.25;;;;;;;;4973035;28;10508;-75
2023/03/09 08:17:58;;;;;;;;;1.00;1.00;;;;;;;;4978807;28;9595;-75
2023/03/09 08:20:26;;;;;;;;;3.00;1.00;;;;;;;;4972259;28;9678;-74
2023/03/09 08:22:59;;;;;;;;;3.50;2.00;;;;;;;;4972112;28;9669;-80
2023/03/09 08:25:27;;;;;;;;;4.50;1.50;;;;;;;;4979723;28;9574;-79
2023/03/09 08:27:56;;;;;;;;;3.50;2.00;;;;;;;;4981130;28;9777;-80
2023/03/09 08:30:23;;;;;;;;;4.50;2.00;;;;;;;;4988100;28;9799;-78
2023/03/09 08:32:52;;;;;;;;;2.00;2.00;;;;;;;;4979027;28;9728;-76
2023/03/09 08:35:23;;;;;;;;;3.00;1.00;;;;;;;;4979726;28;9745;-77
2023/03/09 08:37:50;;;;;;;;;1.00;1.00;;;;;;;;4979827;28;9617;-78
2023/03/09 08:40:18;;;;;;;;;2.00;2.00;;;;;;;;4979394;28;9556;-78
2023/03/09 08:42:55;;;;;;;;;5.75;2.50;;;;;;;;4978129;28;9683;-78
2023/03/09 08:45:23;;;;;;;;;3.00;1.25;;;;;;;;4977407;28;9549;-80
2023/03/09 08:47:50;;;;;;;;;1.00;1.00;;;;;;;;4979678;28;9584;-79
2023/03/09 08:50:18;;;;;;;;;4.00;2.00;;;;;;;;4978607;28;10299;-78
2023/03/09 08:52:48;;;;;;;;;2.50;2.00;;;;;;;;4977667;28;9490;-79
2023/03/09 08:55:17;;;;;;;;;2.25;2.25;;;;;;;;4975526;28;9559;-78
2023/03/09 08:57:45;;;;;;;;;1.00;1.00;;;;;;;;4975481;28;9400;-78
2023/03/09 09:00:18;;;;;;;;;2.00;2.00;;;;;;;;4975645;28;9584;-79
2023/03/09 09:02:47;;;;;;;;;3.00;3.00;;;;;;;;4974462;28;9627;-76
2023/03/09 09:05:14;;;;;;;;;2.67;2.67;;;;;;;;4980059;28;9546;-74
2023/03/09 09:07:42;;;;;;;;;2.00;2.00;;;;;;;;4977871;28;9413;-78
2023/03/09 09:10:11;;;;;;;;;2.00;2.00;;;;;;;;4977961;28;10202;-75
2023/03/09 09:12:39;;;;;;;;;2.00;2.00;;;;;;;;4973915;28;9421;-75
2023/03/09 09:15:10;;;;;;;;;5.67;3.00;;;;;;;;4972508;28;9127;-75
2023/03/09 09:17:38;;;;;;;;;5.00;4.33;;;;;;;;4975988;28;9473;-78
2023/03/09 09:20:06;;;;;;;;;4.33;2.00;;;;;;;;4975864;28;9350;-74
2023/03/09 09:22:34;;;;;;;;;2.33;2.00;;;;;;;;4977291;28;9383;-78
2023/03/09 09:25:02;;;;;;;;;5.00;2.00;;;;;;;;4958083;28;9107;-73
2023/03/09 09:27:31;;;;;;;;;1.67;1.00;;;;;;;;4965873;28;9291;-73
2023/03/09 09:29:58;;;;;;;;;2.67;2.67;;;;;;;;4971923;28;9131;-72
2023/03/09 09:32:26;;;;;;;;;5.00;1.00;;;;;;;;4971701;28;9103;-79
2023/03/09 09:34:54;;;;;;;;;4.00;2.00;;;;;;;;4973232;28;9054;-74
2023/03/09 09:37:22;;;;;;;;;2.00;2.00;;;;;;;;4977713;28;9094;-80
2023/03/09 09:39:51;;;;;;;;;2.67;0.33;;;;;;;;4972575;28;8961;-73
2023/03/09 09:46:02;;;;;;;;;2.33;1.00;;;;;;;;4972923;28;9081;-73
2023/03/09 09:48:30;;;;;;;;;5.50;1.00;;;;;;;;4974050;28;9108;-73
2023/03/09 09:51:11;;;;;;;;;2.00;2.00;;;;;;;;4970103;28;8876;-73
2023/03/09 09:53:46;;;;;;;;;3.25;2.00;;;;;;;;4974423;28;8959;-73
2023/03/09 09:56:17;;;;;;;;;2.50;2.50;;;;;;;;4968658;28;8873;-72
2023/03/09 09:58:48;;;;;;;;;3.25;2.00;;;;;;;;4973692;28;8873;-72
2023/03/09 10:01:23;;;;;;;;;2.50;2.50;;;;;;;;4969792;28;8881;-73
2023/03/09 10:03:51;;;;;;;;;2.00;2.00;;;;;;;;4969714;28;9632;-72
2023/03/09 10:06:21;;;;;;;;;3.50;3.00;;;;;;;;4973879;28;8869;-72
2023/03/09 10:08:51;;;;;;;;;4.00;1.00;;;;;;;;4974621;28;8972;-72
2023/03/09 10:11:24;;;;;;;;;3.50;2.50;;;;;;;;4974568;28;8876;-73
2023/03/09 10:13:56;;;;;;;;;2.50;1.50;;;;;;;;4971342;28;8884;-73
2023/03/09 10:16:27;;;;;;;;;3.50;2.00;;;;;;;;4968291;28;8889;-72
2023/03/09 10:18:57;;;;;;;;;3.00;3.00;;;;;;;;4972206;28;8903;-73
2023/03/09 10:21:27;;;;;;;;;3.25;2.00;;;;;;;;4969488;28;8918;-73
2023/03/09 10:23:56;;;;;;;;;2.75;2.75;;;;;;;;4970896;28;9011;-73
2023/03/09 10:26:32;;;;;;;;;2.00;1.00;;;;;;;;4952935;28;8964;-72
2023/03/09 10:29:04;;;;;;;;;4.50;2.00;;;;;;;;4969815;28;8881;-72
2023/03/09 10:31:40;;;;;;;;;3.25;2.00;;;;;;;;4973686;28;8996;-73
2023/03/09 10:34:17;;;;;;;;;6.75;1.75;;;;;;;;4970210;28;8873;-73
2023/03/09 10:36:57;;;;;;;;;1.50;1.00;;;;;;;;4969278;28;9714;-73
2023/03/09 10:39:24;;;;;;;;;3.00;3.00;;;;;;;;4967515;28;9655;-73
2023/03/09 10:41:55;;;;;;;;;2.25;2.00;;;;;;;;4969424;28;8980;-73
2023/03/09 10:44:22;;;;;;;;;5.75;2.75;;;;;;;;4971207;28;8871;-73
2023/03/09 10:46:59;;;;;;;;;3.00;1.75;;;;;;;;4970037;28;8885;-72
2023/03/09 10:49:27;;;;;;;;;1.50;1.50;;;;;;;;4971933;28;8890;-71
2023/03/09 10:52:01;;;;;;;;;4.25;3.00;;;;;;;;4968457;28;8845;-74
2023/03/09 10:54:39;;;;;;;;;3.75;2.50;;;;;;;;4974214;28;8924;-73
2023/03/09 10:57:23;;;;;;;;;2.00;2.00;;;;;;;;4966861;28;8870;-71
2023/03/09 11:00:00;;;;;;;;;2.00;2.00;;;;;;;;4969226;28;8878;-71
2023/03/09 11:02:35;;;;;;;;;3.00;3.00;;;;;;;;4976235;28;8870;-75
2023/03/09 11:05:18;;;;;;;;;2.25;2.25;;;;;;;;4972207;28;8849;-77
2023/03/09 11:07:52;;;;;;;;;3.25;1.00;;;;;;;;4969850;28;8868;-71
2023/03/09 11:10:26;;;;;;;;;3.00;2.00;;;;;;;;4969808;28;8988;-71
2023/03/09 11:12:55;;;;;;;;;3.00;1.00;;;;;;;;4974657;28;8853;-72
2023/03/09 11:15:30;;;;;;;;;1.00;0.00;;;;;;;;4974876;28;8845;-71
2023/03/09 11:18:00;;;;;;;;;5.00;3.00;;;;;;;;4971877;28;8861;-72
2023/03/09 11:20:30;;;;;;;;;1.00;1.00;;;;;;;;4978873;28;8861;-72
2023/03/09 11:23:30;;;;;;;;;5.50;4.00;;;;;;;;4972593;28;9680;-72
2023/03/09 11:26:12;;;;;;;;;4.50;1.00;;;;;;;;4973192;28;8854;-72
2023/03/09 11:29:00;;;;;;;;;4.75;3.00;;;;;;;;4970810;28;8853;-71
2023/03/09 11:31:32;;;;;;;;;6.50;3.75;;;;;;;;4979170;28;8853;-72
2023/03/09 11:34:01;;;;;;;;;2.00;2.00;;;;;;;;4979155;28;8995;-72
2023/03/09 11:36:37;;;;;;;;;4.25;3.75;;;;;;;;4972426;28;8869;-72
2023/03/09 11:39:09;;;;;;;;;4.00;2.50;;;;;;;;4976327;28;8931;-72
2023/03/09 11:41:41;;;;;;;;;1.75;1.75;;;;;;;;4968340;28;8810;-72
2023/03/09 11:44:14;;;;;;;;;2.00;2.00;;;;;;;;4971390;28;9050;-73
2023/03/09 11:46:43;;;;;;;;;1.25;1.25;;;;;;;;4973089;28;8861;-72
2023/03/09 11:49:18;;;;;;;;;4.50;2.75;;;;;;;;4971459;28;8880;-72
2023/03/09 11:51:51;;;;;;;;;1.75;1.75;;;;;;;;4966358;28;9681;-71
2023/03/09 11:54:25;;;;;;;;;3.75;2.50;;;;;;;;4976735;28;8895;-71
2023/03/09 11:56:54;;;;;;;;;2.50;2.00;;;;;;;;4973140;28;8842;-71
2023/03/09 11:59:30;;;;;;;;;2.50;2.50;;;;;;;;4976210;28;8853;-70
2023/03/09 12:02:01;;;;;;;;;4.25;2.25;;;;;;;;4972245;28;8865;-71
2023/03/09 12:04:30;;;;;;;;;1.25;1.25;;;;;;;;4972697;28;8860;-73
2023/03/09 12:07:00;;;;;;;;;7.75;2.25;;;;;;;;4975366;28;8865;-73
2023/03/09 12:09:33;;;;;;;;;4.50;3.50;;;;;;;;4975222;28;8845;-72
2023/03/09 12:12:09;;;;;;;;;5.50;4.00;;;;;;;;4975395;28;8882;-72
2023/03/09 12:14:39;;;;;;;;;3.50;2.50;;;;;;;;4969358;28;9651;-73
2023/03/09 12:17:13;;;;;;;;;2.25;2.25;;;;;;;;4968001;28;8873;-72
2023/03/09 12:19:49;;;;;;;;;2.50;1.00;;;;;;;;4974395;28;8861;-73
2023/03/09 12:22:21;;;;;;;;;1.25;1.25;;;;;;;;4970659;28;8872;-72
2023/03/09 12:24:59;;;;;;;;;3.00;2.00;;;;;;;;4972990;28;8873;-72
2023/03/09 12:27:29;;;;;;;;;2.00;2.00;;;;;;;;4975513;28;9600;-72
2023/03/09 12:30:12;;;;;;;;;3.75;1.25;;;;;;;;4971956;28;8867;-72
2023/03/09 12:32:43;;;;;;;;;4.25;2.00;;;;;;;;4973003;28;8951;-71
2023/03/09 12:35:31;;;;;;;;;2.00;1.00;;;;;;;;4968015;28;8976;-72
2023/03/09 12:38:17;;;;;;;;;2.00;0.25;;;;;;;;4968808;28;8862;-72
2023/03/09 12:40:45;;;;;;;;;2.75;2.75;;;;;;;;4978514;28;9003;-71
2023/03/09 12:43:42;;;;;;;;;2.00;2.00;;;;;;;;4977697;28;8861;-71
2023/03/09 12:46:46;;;;;;;;;4.25;2.00;;;;;;;;4973285;28;8861;-72
2023/03/09 12:49:16;;;;;;;;;4.25;2.00;;;;;;;;4969688;28;8893;-71
2023/03/09 12:51:51;;;;;;;;;4.50;2.50;;;;;;;;4970135;28;9045;-72
2023/03/09 12:54:27;;;;;;;;;2.25;2.25;;;;;;;;4968061;28;8888;-71
2023/03/09 12:56:55;;;;;;;;;1.00;1.00;;;;;;;;4970638;28;8869;-71
2023/03/09 12:59:27;;;;;;;;;3.25;3.25;;;;;;;;4974397;28;8881;-72
2023/03/09 13:01:56;;;;;;;;;3.75;3.25;;;;;;;;4970500;28;8866;-71
2023/03/09 13:04:25;;;;;;;;;3.50;1.75;;;;;;;;4965536;28;8852;-70
2023/03/09 13:07:00;;;;;;;;;3.50;2.00;;;;;;;;4972134;28;8899;-71
2023/03/09 13:09:39;;;;;;;;;3.75;2.25;;;;;;;;4974586;28;8911;-75
2023/03/09 13:12:20;;;;;;;;;3.50;2.50;;;;;;;;4974335;28;8963;-74
2023/03/09 13:15:13;;;;;;;;;3.00;2.00;;;;;;;;4975548;28;8873;-74
2023/03/09 13:17:42;;;;;;;;;6.75;2.25;;;;;;;;4972286;28;8866;-73
2023/03/09 13:20:42;;;;;;;;;6.50;1.25;;;;;;;;4976391;28;8841;-73
2023/03/09 13:23:14;;;;;;;;;1.25;1.00;;;;;;;;4971437;28;8853;-73
2023/03/09 13:25:46;;;;;;;;;4.25;1.75;;;;;;;;4977417;28;8849;-73
2023/03/09 13:28:22;;;;;;;;;4.00;2.25;;;;;;;;4973085;28;8876;-72
2023/03/09 13:30:51;;;;;;;;;5.25;2.25;;;;;;;;4973948;28;9679;-74
2023/03/09 13:33:26;;;;;;;;;4.25;2.00;;;;;;;;4973808;28;8862;-73
2023/03/09 13:35:59;;;;;;;;;2.25;1.75;;;;;;;;4976444;28;8873;-72
2023/03/09 13:38:29;;;;;;;;;3.25;3.00;;;;;;;;4975892;28;8952;-73
2023/03/09 13:40:59;;;;;;;;;3.00;1.75;;;;;;;;4971167;28;8900;-72
2023/03/09 13:43:31;;;;;;;;;2.00;2.00;;;;;;;;4970815;28;8861;-73
2023/03/09 13:46:08;;;;;;;;;6.00;3.50;;;;;;;;4970940;28;8861;-73
2023/03/09 13:48:41;;;;;;;;;4.25;2.00;;;;;;;;4974180;28;8861;-73
2023/03/09 13:51:37;;;;;;;;;2.00;2.00;;;;;;;;4972852;28;8866;-73
2023/03/09 13:54:17;;;;;;;;;1.00;1.00;;;;;;;;4970888;28;9702;-71
2023/03/09 13:56:44;;;;;;;;;4.25;2.00;;;;;;;;4973815;28;9329;-73
2023/03/09 13:59:16;;;;;;;;;3.75;2.25;;;;;;;;4976983;28;8869;-72
2023/03/09 14:01:44;;;;;;;;;3.75;3.00;;;;;;;;4973995;28;8881;-73
2023/03/09 14:04:17;;;;;;;;;1.50;1.50;;;;;;;;4971200;28;8976;-73
2023/03/09 14:06:45;;;;;;;;;2.75;1.00;;;;;;;;4969668;28;9066;-73
2023/03/09 14:19:27;;;;;;;;;4.00;3.75;;;;;;;;4974919;28;8833;-72
2023/03/09 14:21:56;;;;;;;;;3.00;3.00;;;;;;;;4971848;28;8854;-75
2023/03/09 14:24:32;;;;;;;;;5.25;3.75;;;;;;;;4969287;28;8870;-72
2023/03/09 14:27:16;;;;;;;;;4.00;2.00;;;;;;;;4973078;28;8885;-71
2023/03/09 14:29:43;;;;;;;;;4.00;3.00;;;;;;;;4971706;28;8853;-72
2023/03/09 14:32:27;;;;;;;;;3.00;3.00;;;;;;;;4975493;28;8972;-72
2023/03/09 14:34:57;;;;;;;;;5.25;4.00;;;;;;;;4971324;28;8975;-72
2023/03/09 14:37:29;;;;;;;;;3.00;3.00;;;;;;;;4975499;28;8885;-73
2023/03/09 14:40:18;;;;;;;;;7.25;4.00;;;;;;;;4972864;28;8847;-73
2023/03/09 14:42:47;;;;;;;;;4.00;2.50;;;;;;;;4973273;28;8850;-73
2023/03/09 14:45:24;;;;;;;;;6.00;3.25;;;;;;;;4974251;28;8854;-74
2023/03/09 14:47:57;;;;;;;;;6.50;5.00;;;;;;;;4974867;28;8869;-73
2023/03/09 14:50:31;;;;;;;;;5.00;3.00;;;;;;;;4974944;28;9677;-73
2023/03/09 14:53:02;;;;;;;;;3.00;3.00;;;;;;;;4972829;28;8955;-72
2023/03/09 14:55:30;;;;;;;;;4.50;3.00;;;;;;;;4970787;28;8873;-78
2023/03/09 14:57:58;;;;;;;;;3.00;3.00;;;;;;;;4972980;28;8887;-73
2023/03/09 15:00:30;;;;;;;;;5.25;2.50;;;;;;;;4974154;28;8893;-73
2023/03/09 15:03:06;;;;;;;;;5.00;3.25;;;;;;;;4972567;28;8904;-74
2023/03/09 15:05:39;;;;;;;;;2.50;2.50;;;;;;;;4975531;28;9312;-74
2023/03/09 15:08:06;;;;;;;;;3.00;3.00;;;;;;;;4974679;28;8873;-73
2023/03/09 15:10:34;;;;;;;;;4.75;2.00;;;;;;;;4974803;28;8861;-72
2023/03/09 15:13:02;;;;;;;;;1.75;1.25;;;;;;;;4975243;28;8869;-75
2023/03/09 15:15:29;;;;;;;;;3.75;2.00;;;;;;;;4969472;28;9663;-74
2023/03/09 15:17:59;;;;;;;;;3.00;3.00;;;;;;;;4976922;28;8881;-73
2023/03/09 15:20:26;;;;;;;;;5.25;2.25;;;;;;;;4973375;28;8889;-73
2023/03/09 15:22:55;;;;;;;;;5.75;2.75;;;;;;;;4971597;28;8861;-73
2023/03/09 15:25:23;;;;;;;;;3.50;2.75;;;;;;;;4975668;28;8849;-72
2023/03/09 15:27:50;;;;;;;;;0.50;0.50;;;;;;;;4973082;28;8901;-71
2023/03/09 15:30:19;;;;;;;;;2.00;1.50;;;;;;;;4970904;28;8876;-73
2023/03/09 15:32:48;;;;;;;;;4.75;2.00;;;;;;;;4968211;28;8860;-72